sensor_id;sensor_type;location;lat;lon;timestamp;pressure;altitude;pressure_sealevel;temperature;humidity
6942;BME280;3510;43.200;27.920;2023-05-20T00:01:24;101086.03;;;25.99;36.10
6942;BME280;3510;43.200;27.920;2023-05-20T00:03:52;101090.28;;;25.67;36.43
6942;BME280;3510;43.200;27.920;2023-05-20T00:06:19;101083.03;;;25.22;37.71
6942;BME280;3510;43.200;27.920;2023-05-20T00:08:45;101076.38;;;25.62;36.71
6942;BME280;3510;43.200;27.920;2023-05-20T00:11:12;101077.22;;;25.61;36.69
6942;BME280;3510;43.200;27.920;2023-05-20T00:13:38;101086.16;;;26.05;36.45
6942;BME280;3510;43.200;27.920;2023-05-20T00:16:05;101085.38;;;25.76;36.91
6942;BME280;3510;43.200;27.920;2023-05-20T00:18:31;101089.28;;;26.27;36.11
6942;BME280;3510;43.200;27.920;2023-05-20T00:20:59;101084.63;;;26.47;35.65
6942;BME280;3510;43.200;27.920;2023-05-20T00:23:26;101086.81;;;26.31;35.95
6942;BME280;3510;43.200;27.920;2023-05-20T00:25:52;101087.44;;;25.56;37.49
6942;BME280;3510;43.200;27.920;2023-05-20T00:28:18;101090.66;;;25.19;38.07
6942;BME280;3510;43.200;27.920;2023-05-20T00:30:45;101086.69;;;25.62;37.79
6942;BME280;3510;43.200;27.920;2023-05-20T00:33:12;101084.97;;;25.61;37.33
6942;BME280;3510;43.200;27.920;2023-05-20T00:35:38;101085.47;;;25.48;38.03
6942;BME280;3510;43.200;27.920;2023-05-20T00:38:06;101071.59;;;25.74;37.45
6942;BME280;3510;43.200;27.920;2023-05-20T00:40:32;101094.66;;;25.38;37.96
6942;BME280;3510;43.200;27.920;2023-05-20T00:42:59;101081.66;;;25.35;38.33
6942;BME280;3510;43.200;27.920;2023-05-20T00:45:25;101069.41;;;25.26;38.31
6942;BME280;3510;43.200;27.920;2023-05-20T00:47:52;101073.00;;;25.63;38.04
6942;BME280;3510;43.200;27.920;2023-05-20T00:50:21;101075.00;;;25.43;38.50
6942;BME280;3510;43.200;27.920;2023-05-20T00:52:48;101070.06;;;25.51;38.08
6942;BME280;3510;43.200;27.920;2023-05-20T00:55:17;101066.38;;;26.04;37.49
6942;BME280;3510;43.200;27.920;2023-05-20T00:57:44;101070.28;;;25.58;38.14
6942;BME280;3510;43.200;27.920;2023-05-20T01:00:11;101070.00;;;25.48;38.25
6942;BME280;3510;43.200;27.920;2023-05-20T01:02:38;101062.66;;;25.93;37.41
6942;BME280;3510;43.200;27.920;2023-05-20T01:05:05;101061.66;;;26.58;36.39
6942;BME280;3510;43.200;27.920;2023-05-20T01:07:31;101055.75;;;25.62;38.08
6942;BME280;3510;43.200;27.920;2023-05-20T01:09:58;101063.94;;;25.77;37.82
6942;BME280;3510;43.200;27.920;2023-05-20T01:12:27;101061.19;;;25.71;37.99
6942;BME280;3510;43.200;27.920;2023-05-20T01:14:56;101062.69;;;25.95;37.35
6942;BME280;3510;43.200;27.920;2023-05-20T01:17:25;101058.06;;;25.81;38.13
6942;BME280;3510;43.200;27.920;2023-05-20T01:19:53;101067.06;;;25.97;37.52
6942;BME280;3510;43.200;27.920;2023-05-20T01:22:24;101066.78;;;26.21;37.56
6942;BME280;3510;43.200;27.920;2023-05-20T01:24:50;101051.44;;;26.27;37.14
6942;BME280;3510;43.200;27.920;2023-05-20T01:27:18;101050.28;;;26.51;36.75
6942;BME280;3510;43.200;27.920;2023-05-20T01:29:46;101052.50;;;26.36;37.21
6942;BME280;3510;43.200;27.920;2023-05-20T01:32:16;101051.72;;;26.40;37.13
6942;BME280;3510;43.200;27.920;2023-05-20T01:34:44;101050.09;;;26.07;37.93
6942;BME280;3510;43.200;27.920;2023-05-20T01:37:12;101056.94;;;26.41;37.03
6942;BME280;3510;43.200;27.920;2023-05-20T01:39:40;101063.44;;;26.60;36.98
6942;BME280;3510;43.200;27.920;2023-05-20T01:42:07;101049.25;;;25.75;38.16
6942;BME280;3510;43.200;27.920;2023-05-20T01:44:35;101058.56;;;26.38;37.23
6942;BME280;3510;43.200;27.920;2023-05-20T01:47:02;101063.31;;;26.93;36.34
6942;BME280;3510;43.200;27.920;2023-05-20T01:49:31;101065.34;;;25.98;37.69
6942;BME280;3510;43.200;27.920;2023-05-20T01:51:57;101065.09;;;26.96;35.99
6942;BME280;3510;43.200;27.920;2023-05-20T01:54:24;101064.47;;;26.68;36.69
6942;BME280;3510;43.200;27.920;2023-05-20T01:56:52;101061.75;;;26.62;36.73
6942;BME280;3510;43.200;27.920;2023-05-20T01:59:19;101073.75;;;26.60;36.63
6942;BME280;3510;43.200;27.920;2023-05-20T02:01:45;101067.75;;;25.92;38.05
6942;BME280;3510;43.200;27.920;2023-05-20T02:04:12;101077.78;;;25.49;38.57
6942;BME280;3510;43.200;27.920;2023-05-20T02:06:38;101075.19;;;25.49;38.61
6942;BME280;3510;43.200;27.920;2023-05-20T02:09:05;101084.34;;;26.71;36.98
6942;BME280;3510;43.200;27.920;2023-05-20T02:11:32;101072.66;;;26.16;37.58
6942;BME280;3510;43.200;27.920;2023-05-20T02:14:00;101086.75;;;25.64;38.90
6942;BME280;3510;43.200;27.920;2023-05-20T02:16:26;101070.38;;;25.93;38.19
6942;BME280;3510;43.200;27.920;2023-05-20T02:18:53;101083.44;;;26.34;37.69
6942;BME280;3510;43.200;27.920;2023-05-20T02:21:19;101078.59;;;26.12;38.05
6942;BME280;3510;43.200;27.920;2023-05-20T02:23:46;101089.56;;;25.73;38.43
6942;BME280;3510;43.200;27.920;2023-05-20T02:26:12;101079.97;;;25.99;38.59
6942;BME280;3510;43.200;27.920;2023-05-20T02:28:39;101094.09;;;25.50;39.36
6942;BME280;3510;43.200;27.920;2023-05-20T02:31:11;101104.78;;;25.03;40.35
6942;BME280;3510;43.200;27.920;2023-05-20T02:33:38;101089.66;;;25.44;39.71
6942;BME280;3510;43.200;27.920;2023-05-20T02:36:05;101085.09;;;25.66;38.96
6942;BME280;3510;43.200;27.920;2023-05-20T02:38:31;101083.19;;;25.28;39.84
6942;BME280;3510;43.200;27.920;2023-05-20T02:40:58;101079.69;;;25.56;39.29
6942;BME280;3510;43.200;27.920;2023-05-20T02:43:24;101082.50;;;25.66;39.19
6942;BME280;3510;43.200;27.920;2023-05-20T02:45:51;101095.63;;;25.43;39.50
6942;BME280;3510;43.200;27.920;2023-05-20T02:48:19;101090.66;;;26.13;38.42
6942;BME280;3510;43.200;27.920;2023-05-20T02:50:45;101099.22;;;25.78;38.78
6942;BME280;3510;43.200;27.920;2023-05-20T02:53:12;101111.38;;;25.82;38.39
6942;BME280;3510;43.200;27.920;2023-05-20T02:55:38;101096.97;;;25.91;38.71
6942;BME280;3510;43.200;27.920;2023-05-20T02:58:05;101110.72;;;26.24;37.52
6942;BME280;3510;43.200;27.920;2023-05-20T03:00:31;101118.03;;;25.76;39.06
6942;BME280;3510;43.200;27.920;2023-05-20T03:03:04;101117.59;;;25.91;38.71
6942;BME280;3510;43.200;27.920;2023-05-20T03:05:32;101128.03;;;25.95;39.04
6942;BME280;3510;43.200;27.920;2023-05-20T03:08:01;101122.28;;;25.44;39.96
6942;BME280;3510;43.200;27.920;2023-05-20T03:10:28;101123.81;;;25.99;38.72
6942;BME280;3510;43.200;27.920;2023-05-20T03:12:55;101129.13;;;25.73;39.38
6942;BME280;3510;43.200;27.920;2023-05-20T03:15:21;101128.03;;;25.33;40.18
6942;BME280;3510;43.200;27.920;2023-05-20T03:17:48;101130.31;;;25.54;40.02
6942;BME280;3510;43.200;27.920;2023-05-20T03:20:14;101118.66;;;25.67;39.30
6942;BME280;3510;43.200;27.920;2023-05-20T03:22:43;101117.47;;;25.86;38.79
6942;BME280;3510;43.200;27.920;2023-05-20T03:25:09;101129.72;;;25.33;39.64
6942;BME280;3510;43.200;27.920;2023-05-20T03:27:36;101123.44;;;24.96;40.47
6942;BME280;3510;43.200;27.920;2023-05-20T03:30:03;101129.31;;;25.19;39.82
6942;BME280;3510;43.200;27.920;2023-05-20T03:32:30;101114.69;;;25.78;38.90
6942;BME280;3510;43.200;27.920;2023-05-20T03:34:56;101120.81;;;24.95;39.99
6942;BME280;3510;43.200;27.920;2023-05-20T03:37:24;101115.81;;;25.58;38.83
6942;BME280;3510;43.200;27.920;2023-05-20T03:39:51;101115.66;;;26.15;37.90
6942;BME280;3510;43.200;27.920;2023-05-20T03:42:18;101109.00;;;25.60;38.88
6942;BME280;3510;43.200;27.920;2023-05-20T03:44:44;101127.63;;;25.21;39.71
6942;BME280;3510;43.200;27.920;2023-05-20T03:47:11;101134.03;;;25.34;39.42
6942;BME280;3510;43.200;27.920;2023-05-20T03:49:37;101118.88;;;24.87;40.06
6942;BME280;3510;43.200;27.920;2023-05-20T03:52:05;101115.94;;;25.04;40.10
6942;BME280;3510;43.200;27.920;2023-05-20T03:54:31;101103.41;;;24.87;40.52
6942;BME280;3510;43.200;27.920;2023-05-20T03:57:01;101107.25;;;24.73;40.76
6942;BME280;3510;43.200;27.920;2023-05-20T03:59:28;101104.63;;;24.70;41.41
6942;BME280;3510;43.200;27.920;2023-05-20T04:01:54;101093.28;;;25.51;39.44
6942;BME280;3510;43.200;27.920;2023-05-20T04:04:22;101091.91;;;24.48;41.68
6942;BME280;3510;43.200;27.920;2023-05-20T04:06:48;101115.41;;;23.83;43.47
6942;BME280;3510;43.200;27.920;2023-05-20T04:09:15;101102.47;;;24.57;42.23
6942;BME280;3510;43.200;27.920;2023-05-20T04:11:41;101094.75;;;24.31;42.83
6942;BME280;3510;43.200;27.920;2023-05-20T04:14:09;101095.78;;;24.11;43.66
6942;BME280;3510;43.200;27.920;2023-05-20T04:16:36;101101.69;;;24.08;44.37
6942;BME280;3510;43.200;27.920;2023-05-20T04:19:02;101107.59;;;24.31;44.23
6942;BME280;3510;43.200;27.920;2023-05-20T04:21:29;101100.28;;;24.69;43.57
6942;BME280;3510;43.200;27.920;2023-05-20T04:23:56;101100.53;;;24.50;43.79
6942;BME280;3510;43.200;27.920;2023-05-20T04:26:23;101092.13;;;24.55;44.42
6942;BME280;3510;43.200;27.920;2023-05-20T04:28:49;101094.94;;;24.37;45.14
6942;BME280;3510;43.200;27.920;2023-05-20T04:31:17;101085.69;;;24.17;45.34
6942;BME280;3510;43.200;27.920;2023-05-20T04:33:44;101081.78;;;24.03;45.68
6942;BME280;3510;43.200;27.920;2023-05-20T04:36:11;101078.44;;;24.31;45.13
6942;BME280;3510;43.200;27.920;2023-05-20T04:38:40;101082.72;;;24.05;46.30
6942;BME280;3510;43.200;27.920;2023-05-20T04:41:08;101090.53;;;24.59;44.63
6942;BME280;3510;43.200;27.920;2023-05-20T04:43:35;101095.59;;;25.12;43.79
6942;BME280;3510;43.200;27.920;2023-05-20T04:46:03;101104.31;;;24.61;44.31
6942;BME280;3510;43.200;27.920;2023-05-20T04:48:32;101087.69;;;24.78;44.12
6942;BME280;3510;43.200;27.920;2023-05-20T04:50:58;101082.34;;;24.72;44.18
6942;BME280;3510;43.200;27.920;2023-05-20T04:53:25;101087.72;;;24.51;44.64
6942;BME280;3510;43.200;27.920;2023-05-20T04:55:53;101102.16;;;23.73;46.39
6942;BME280;3510;43.200;27.920;2023-05-20T04:58:20;101092.25;;;24.07;45.97
6942;BME280;3510;43.200;27.920;2023-05-20T05:00:48;101086.25;;;23.59;46.64
6942;BME280;3510;43.200;27.920;2023-05-20T05:03:15;101082.84;;;23.60;47.01
6942;BME280;3510;43.200;27.920;2023-05-20T05:05:43;101073.44;;;24.10;46.05
6942;BME280;3510;43.200;27.920;2023-05-20T05:08:10;101063.91;;;23.58;47.00
6942;BME280;3510;43.200;27.920;2023-05-20T05:10:36;101073.53;;;24.38;45.44
6942;BME280;3510;43.200;27.920;2023-05-20T05:13:03;101074.75;;;23.97;46.37
6942;BME280;3510;43.200;27.920;2023-05-20T05:15:29;101096.13;;;24.47;44.82
6942;BME280;3510;43.200;27.920;2023-05-20T05:17:56;101071.72;;;24.61;44.93
6942;BME280;3510;43.200;27.920;2023-05-20T05:20:23;101069.72;;;24.26;45.45
6942;BME280;3510;43.200;27.920;2023-05-20T05:22:50;101079.28;;;24.30;45.25
6942;BME280;3510;43.200;27.920;2023-05-20T05:25:17;101068.38;;;24.38;45.13
6942;BME280;3510;43.200;27.920;2023-05-20T05:27:44;101072.03;;;24.44;44.79
6942;BME280;3510;43.200;27.920;2023-05-20T05:30:13;101084.00;;;24.43;44.25
6942;BME280;3510;43.200;27.920;2023-05-20T05:32:39;101080.13;;;24.56;44.34
6942;BME280;3510;43.200;27.920;2023-05-20T05:35:06;101074.81;;;24.78;43.92
6942;BME280;3510;43.200;27.920;2023-05-20T05:37:32;101078.06;;;25.00;43.40
6942;BME280;3510;43.200;27.920;2023-05-20T05:40:00;101113.91;;;24.39;44.48
6942;BME280;3510;43.200;27.920;2023-05-20T05:42:27;101084.19;;;23.98;45.35
6942;BME280;3510;43.200;27.920;2023-05-20T05:44:54;101096.69;;;24.13;45.16
6942;BME280;3510;43.200;27.920;2023-05-20T05:47:20;101076.13;;;23.87;45.52
6942;BME280;3510;43.200;27.920;2023-05-20T05:49:46;101076.72;;;24.57;43.71
6942;BME280;3510;43.200;27.920;2023-05-20T05:52:13;101089.06;;;24.67;43.53
6942;BME280;3510;43.200;27.920;2023-05-20T05:54:40;101078.09;;;24.46;43.61
6942;BME280;3510;43.200;27.920;2023-05-20T05:57:08;101099.88;;;24.84;42.79
6942;BME280;3510;43.200;27.920;2023-05-20T05:59:36;101093.91;;;25.42;41.61
6942;BME280;3510;43.200;27.920;2023-05-20T06:02:02;101104.94;;;25.68;40.92
6942;BME280;3510;43.200;27.920;2023-05-20T06:04:29;101090.00;;;24.98;41.95
6942;BME280;3510;43.200;27.920;2023-05-20T06:06:55;101096.25;;;25.06;41.81
6942;BME280;3510;43.200;27.920;2023-05-20T06:09:22;101089.91;;;24.95;42.44
6942;BME280;3510;43.200;27.920;2023-05-20T06:11:48;101087.28;;;24.93;42.00
6942;BME280;3510;43.200;27.920;2023-05-20T06:14:16;101094.25;;;24.96;41.73
6942;BME280;3510;43.200;27.920;2023-05-20T06:16:42;101085.97;;;25.66;40.48
6942;BME280;3510;43.200;27.920;2023-05-20T06:19:09;101078.78;;;24.96;41.17
6942;BME280;3510;43.200;27.920;2023-05-20T06:21:35;101087.88;;;25.12;40.98
6942;BME280;3510;43.200;27.920;2023-05-20T06:24:02;101082.34;;;24.72;41.57
6942;BME280;3510;43.200;27.920;2023-05-20T06:26:29;101086.81;;;25.35;40.66
6942;BME280;3510;43.200;27.920;2023-05-20T06:28:55;101096.34;;;25.38;40.36
6942;BME280;3510;43.200;27.920;2023-05-20T06:31:23;101075.75;;;25.39;39.49
6942;BME280;3510;43.200;27.920;2023-05-20T06:33:50;101075.31;;;25.54;39.15
6942;BME280;3510;43.200;27.920;2023-05-20T06:36:16;101086.19;;;25.44;38.64
6942;BME280;3510;43.200;27.920;2023-05-20T06:38:43;101075.50;;;25.92;37.78
6942;BME280;3510;43.200;27.920;2023-05-20T06:41:09;101101.38;;;25.63;37.60
6942;BME280;3510;43.200;27.920;2023-05-20T06:43:36;101073.59;;;25.54;37.42
6942;BME280;3510;43.200;27.920;2023-05-20T06:46:04;101069.41;;;26.23;36.48
6942;BME280;3510;43.200;27.920;2023-05-20T06:48:32;101075.34;;;25.86;36.53
6942;BME280;3510;43.200;27.920;2023-05-20T06:50:58;101077.53;;;26.38;35.60
6942;BME280;3510;43.200;27.920;2023-05-20T06:53:25;101080.66;;;27.40;34.10
6942;BME280;3510;43.200;27.920;2023-05-20T06:55:52;101093.75;;;26.69;33.99
6942;BME280;3510;43.200;27.920;2023-05-20T06:58:19;101092.44;;;26.88;34.20
6942;BME280;3510;43.200;27.920;2023-05-20T07:00:46;101090.28;;;26.67;34.42
6942;BME280;3510;43.200;27.920;2023-05-20T07:03:12;101102.63;;;26.80;34.19
6942;BME280;3510;43.200;27.920;2023-05-20T07:05:40;101108.28;;;27.03;33.84
6942;BME280;3510;43.200;27.920;2023-05-20T07:08:06;101121.69;;;26.49;34.44
6942;BME280;3510;43.200;27.920;2023-05-20T07:10:33;101110.41;;;27.19;34.04
6942;BME280;3510;43.200;27.920;2023-05-20T07:12:59;101126.84;;;27.23;33.96
6942;BME280;3510;43.200;27.920;2023-05-20T07:15:26;101117.97;;;26.39;35.63
6942;BME280;3510;43.200;27.920;2023-05-20T07:17:53;101122.94;;;26.31;35.95
6942;BME280;3510;43.200;27.920;2023-05-20T07:20:19;101115.69;;;26.86;35.15
6942;BME280;3510;43.200;27.920;2023-05-20T07:22:47;101159.50;;;26.47;35.76
6942;BME280;3510;43.200;27.920;2023-05-20T07:25:15;101144.63;;;26.71;35.29
6942;BME280;3510;43.200;27.920;2023-05-20T07:27:41;101121.94;;;26.96;35.29
6942;BME280;3510;43.200;27.920;2023-05-20T07:30:08;101143.50;;;26.62;35.67
6942;BME280;3510;43.200;27.920;2023-05-20T07:32:35;101108.28;;;26.65;35.74
6942;BME280;3510;43.200;27.920;2023-05-20T07:35:01;101132.03;;;26.49;36.22
6942;BME280;3510;43.200;27.920;2023-05-20T07:37:28;101113.38;;;27.38;35.03
6942;BME280;3510;43.200;27.920;2023-05-20T07:39:55;101122.69;;;26.92;36.12
6942;BME280;3510;43.200;27.920;2023-05-20T07:42:22;101132.72;;;26.78;36.60
6942;BME280;3510;43.200;27.920;2023-05-20T07:44:48;101135.09;;;26.36;37.48
6942;BME280;3510;43.200;27.920;2023-05-20T07:47:15;101143.03;;;26.43;37.84
6942;BME280;3510;43.200;27.920;2023-05-20T07:49:41;101129.47;;;26.88;37.14
6942;BME280;3510;43.200;27.920;2023-05-20T07:52:08;101154.69;;;26.27;38.07
6942;BME280;3510;43.200;27.920;2023-05-20T07:54:34;101140.50;;;27.17;37.12
6942;BME280;3510;43.200;27.920;2023-05-20T07:57:02;101144.47;;;26.65;38.24
6942;BME280;3510;43.200;27.920;2023-05-20T07:59:29;101137.31;;;26.91;37.55
6942;BME280;3510;43.200;27.920;2023-05-20T08:01:55;101148.84;;;27.87;36.30
6942;BME280;3510;43.200;27.920;2023-05-20T08:04:22;101152.97;;;26.61;39.28
6942;BME280;3510;43.200;27.920;2023-05-20T08:06:48;101144.00;;;27.19;39.22
6942;BME280;3510;43.200;27.920;2023-05-20T08:09:15;101156.59;;;26.35;42.21
6942;BME280;3510;43.200;27.920;2023-05-20T08:11:41;101170.53;;;25.78;42.68
6942;BME280;3510;43.200;27.920;2023-05-20T08:14:09;101151.75;;;25.52;43.98
6942;BME280;3510;43.200;27.920;2023-05-20T08:16:35;101166.25;;;25.48;43.94
6942;BME280;3510;43.200;27.920;2023-05-20T08:19:02;101168.72;;;25.74;44.10
6942;BME280;3510;43.200;27.920;2023-05-20T08:21:29;101162.41;;;25.07;45.83
6942;BME280;3510;43.200;27.920;2023-05-20T08:23:56;101163.69;;;25.20;46.19
6942;BME280;3510;43.200;27.920;2023-05-20T08:26:23;101168.09;;;25.24;46.03
6942;BME280;3510;43.200;27.920;2023-05-20T08:28:50;101173.88;;;24.90;46.74
6942;BME280;3510;43.200;27.920;2023-05-20T08:31:19;101172.91;;;25.13;45.87
6942;BME280;3510;43.200;27.920;2023-05-20T08:33:45;101167.03;;;25.17;46.50
6942;BME280;3510;43.200;27.920;2023-05-20T08:36:12;101160.47;;;25.27;46.75
6942;BME280;3510;43.200;27.920;2023-05-20T08:38:38;101153.94;;;24.84;46.91
6942;BME280;3510;43.200;27.920;2023-05-20T08:41:05;101156.66;;;24.61;47.70
6942;BME280;3510;43.200;27.920;2023-05-20T08:43:31;101158.88;;;25.32;46.79
6942;BME280;3510;43.200;27.920;2023-05-20T08:45:58;101154.59;;;25.04;46.67
6942;BME280;3510;43.200;27.920;2023-05-20T08:48:28;101159.75;;;25.04;46.96
6942;BME280;3510;43.200;27.920;2023-05-20T08:50:56;101164.22;;;24.82;46.99
6942;BME280;3510;43.200;27.920;2023-05-20T08:53:23;101157.84;;;24.71;47.23
6942;BME280;3510;43.200;27.920;2023-05-20T08:55:52;101164.44;;;25.17;46.50
6942;BME280;3510;43.200;27.920;2023-05-20T08:58:19;101150.63;;;24.88;46.57
6942;BME280;3510;43.200;27.920;2023-05-20T09:00:46;101161.47;;;25.05;45.91
6942;BME280;3510;43.200;27.920;2023-05-20T09:03:12;101157.13;;;25.90;44.68
6942;BME280;3510;43.200;27.920;2023-05-20T09:05:40;101158.00;;;25.60;45.35
6942;BME280;3510;43.200;27.920;2023-05-20T09:08:08;101160.91;;;25.42;45.66
6942;BME280;3510;43.200;27.920;2023-05-20T09:10:35;101144.25;;;26.23;44.17
6942;BME280;3510;43.200;27.920;2023-05-20T09:13:02;101152.88;;;26.25;43.40
6942;BME280;3510;43.200;27.920;2023-05-20T09:15:29;101155.13;;;26.11;43.94
6942;BME280;3510;43.200;27.920;2023-05-20T09:17:58;101151.22;;;25.94;44.59
6942;BME280;3510;43.200;27.920;2023-05-20T09:20:25;101142.97;;;26.40;43.17
6942;BME280;3510;43.200;27.920;2023-05-20T09:22:57;101145.50;;;26.73;42.67
6942;BME280;3510;43.200;27.920;2023-05-20T09:25:24;101147.88;;;27.40;41.55
6942;BME280;3510;43.200;27.920;2023-05-20T09:27:51;101150.41;;;27.79;41.92
6942;BME280;3510;43.200;27.920;2023-05-20T09:30:17;101138.88;;;27.63;42.02
6942;BME280;3510;43.200;27.920;2023-05-20T09:32:45;101134.56;;;28.08;41.23
6942;BME280;3510;43.200;27.920;2023-05-20T09:35:17;101142.06;;;28.41;40.68
6942;BME280;3510;43.200;27.920;2023-05-20T09:37:44;101136.44;;;28.18;40.82
6942;BME280;3510;43.200;27.920;2023-05-20T09:40:14;101135.25;;;27.99;40.48
6942;BME280;3510;43.200;27.920;2023-05-20T09:42:42;101129.53;;;28.15;39.93
6942;BME280;3510;43.200;27.920;2023-05-20T09:45:10;101126.78;;;27.62;41.00
6942;BME280;3510;43.200;27.920;2023-05-20T09:47:37;101117.25;;;27.60;41.28
6942;BME280;3510;43.200;27.920;2023-05-20T09:50:05;101119.56;;;27.90;40.60
6942;BME280;3510;43.200;27.920;2023-05-20T09:52:34;101118.84;;;27.98;40.40
6942;BME280;3510;43.200;27.920;2023-05-20T09:55:01;101110.03;;;27.87;40.98
6942;BME280;3510;43.200;27.920;2023-05-20T09:57:31;101111.22;;;28.06;40.54
6942;BME280;3510;43.200;27.920;2023-05-20T09:59:59;101102.66;;;28.07;40.56
6942;BME280;3510;43.200;27.920;2023-05-20T10:02:25;101098.94;;;28.43;40.38
6942;BME280;3510;43.200;27.920;2023-05-20T10:04:52;101094.91;;;28.09;40.38
6942;BME280;3510;43.200;27.920;2023-05-20T10:07:25;101093.97;;;28.58;40.00
6942;BME280;3510;43.200;27.920;2023-05-20T10:10:02;101095.50;;;29.02;39.14
6942;BME280;3510;43.200;27.920;2023-05-20T10:12:35;101093.91;;;29.13;39.72
6942;BME280;3510;43.200;27.920;2023-05-20T10:15:08;101084.19;;;29.68;38.42
6942;BME280;3510;43.200;27.920;2023-05-20T10:17:38;101084.38;;;29.88;37.69
6942;BME280;3510;43.200;27.920;2023-05-20T10:20:09;101082.97;;;29.37;38.17
6942;BME280;3510;43.200;27.920;2023-05-20T10:22:37;101082.09;;;30.20;37.51
6942;BME280;3510;43.200;27.920;2023-05-20T10:25:10;101076.06;;;29.37;38.52
6942;BME280;3510;43.200;27.920;2023-05-20T10:27:47;101065.31;;;29.07;39.01
6942;BME280;3510;43.200;27.920;2023-05-20T10:30:15;101046.13;;;29.69;38.40
6942;BME280;3510;43.200;27.920;2023-05-20T10:32:48;101055.28;;;30.20;37.43
6942;BME280;3510;43.200;27.920;2023-05-20T10:35:21;101052.50;;;30.01;37.50
6942;BME280;3510;43.200;27.920;2023-05-20T10:37:51;101056.59;;;29.75;37.34
6942;BME280;3510;43.200;27.920;2023-05-20T10:40:19;101041.63;;;30.50;36.46
6942;BME280;3510;43.200;27.920;2023-05-20T10:42:48;101039.28;;;30.93;34.64
6942;BME280;3510;43.200;27.920;2023-05-20T10:45:26;101046.84;;;30.54;36.35
6942;BME280;3510;43.200;27.920;2023-05-20T10:47:53;101042.06;;;32.64;33.06
6942;BME280;3510;43.200;27.920;2023-05-20T10:50:33;101048.13;;;32.71;31.10
6942;BME280;3510;43.200;27.920;2023-05-20T10:53:02;101051.22;;;34.62;30.67
6942;BME280;3510;43.200;27.920;2023-05-20T10:55:35;101037.81;;;34.89;29.76
6942;BME280;3510;43.200;27.920;2023-05-20T10:58:05;101051.22;;;35.90;28.63
6942;BME280;3510;43.200;27.920;2023-05-20T11:00:33;101058.25;;;34.55;26.21
6942;BME280;3510;43.200;27.920;2023-05-20T11:03:00;101032.06;;;35.86;25.64
6942;BME280;3510;43.200;27.920;2023-05-20T11:05:28;101025.63;;;35.49;25.59
6942;BME280;3510;43.200;27.920;2023-05-20T11:08:00;101009.50;;;35.21;25.21
6942;BME280;3510;43.200;27.920;2023-05-20T11:10:27;101030.63;;;35.67;25.77
6942;BME280;3510;43.200;27.920;2023-05-20T11:12:56;101012.03;;;35.27;26.19
6942;BME280;3510;43.200;27.920;2023-05-20T11:15:24;101020.75;;;35.26;26.48
6942;BME280;3510;43.200;27.920;2023-05-20T11:17:52;101012.91;;;35.27;26.24
6942;BME280;3510;43.200;27.920;2023-05-20T11:20:20;101019.16;;;34.43;26.89
6942;BME280;3510;43.200;27.920;2023-05-20T11:22:48;100995.28;;;34.74;26.92
6942;BME280;3510;43.200;27.920;2023-05-20T11:25:15;101014.78;;;35.18;25.98
6942;BME280;3510;43.200;27.920;2023-05-20T11:27:43;101012.56;;;34.85;27.01
6942;BME280;3510;43.200;27.920;2023-05-20T11:30:10;101014.75;;;34.50;27.29
6942;BME280;3510;43.200;27.920;2023-05-20T11:32:42;101028.59;;;34.58;27.25
6942;BME280;3510;43.200;27.920;2023-05-20T11:35:20;101028.34;;;34.79;27.04
6942;BME280;3510;43.200;27.920;2023-05-20T11:37:53;101028.81;;;35.12;27.58
6942;BME280;3510;43.200;27.920;2023-05-20T11:40:23;101027.69;;;35.85;26.45
6942;BME280;3510;43.200;27.920;2023-05-20T11:42:52;101037.91;;;36.53;25.58
6942;BME280;3510;43.200;27.920;2023-05-20T11:45:19;101042.94;;;37.06;24.62
6942;BME280;3510;43.200;27.920;2023-05-20T11:47:57;101032.66;;;37.73;23.48
6942;BME280;3510;43.200;27.920;2023-05-20T11:50:24;101036.34;;;38.65;22.85
6942;BME280;3510;43.200;27.920;2023-05-20T11:52:56;101028.72;;;38.87;22.48
6942;BME280;3510;43.200;27.920;2023-05-20T11:55:23;101040.72;;;38.96;22.59
6942;BME280;3510;43.200;27.920;2023-05-20T11:57:50;101027.06;;;37.51;24.10
6942;BME280;3510;43.200;27.920;2023-05-20T12:00:17;101025.94;;;37.22;23.74
6942;BME280;3510;43.200;27.920;2023-05-20T12:02:44;101022.81;;;38.15;22.79
6942;BME280;3510;43.200;27.920;2023-05-20T12:05:12;101012.56;;;38.39;22.50
6942;BME280;3510;43.200;27.920;2023-05-20T12:07:39;101019.47;;;38.72;22.31
6942;BME280;3510;43.200;27.920;2023-05-20T12:10:06;101018.66;;;38.70;22.25
6942;BME280;3510;43.200;27.920;2023-05-20T12:12:33;100991.25;;;37.81;23.64
6942;BME280;3510;43.200;27.920;2023-05-20T12:15:01;101013.69;;;38.29;23.91
6942;BME280;3510;43.200;27.920;2023-05-20T12:17:28;101001.81;;;39.60;22.72
6942;BME280;3510;43.200;27.920;2023-05-20T12:19:55;101012.66;;;39.23;22.64
6942;BME280;3510;43.200;27.920;2023-05-20T12:22:23;100986.84;;;39.36;22.52
6942;BME280;3510;43.200;27.920;2023-05-20T12:24:50;100998.19;;;39.10;22.81
6942;BME280;3510;43.200;27.920;2023-05-20T12:27:16;101007.41;;;38.34;23.43
6942;BME280;3510;43.200;27.920;2023-05-20T12:29:43;100991.63;;;37.30;24.92
6942;BME280;3510;43.200;27.920;2023-05-20T12:32:10;100989.31;;;36.32;25.71
6942;BME280;3510;43.200;27.920;2023-05-20T12:34:37;100988.72;;;37.03;24.75
6942;BME280;3510;43.200;27.920;2023-05-20T12:37:04;100958.97;;;35.71;25.74
6942;BME280;3510;43.200;27.920;2023-05-20T12:39:32;100995.03;;;36.06;26.37
6942;BME280;3510;43.200;27.920;2023-05-20T12:41:59;100975.16;;;35.40;27.36
6942;BME280;3510;43.200;27.920;2023-05-20T12:44:26;100988.44;;;33.72;28.64
6942;BME280;3510;43.200;27.920;2023-05-20T12:46:53;100985.00;;;34.60;27.51
6942;BME280;3510;43.200;27.920;2023-05-20T12:49:20;100961.22;;;35.38;26.50
6942;BME280;3510;43.200;27.920;2023-05-20T12:51:47;100985.97;;;34.53;27.88
6942;BME280;3510;43.200;27.920;2023-05-20T12:54:14;100983.78;;;34.10;28.45
6942;BME280;3510;43.200;27.920;2023-05-20T12:56:42;100974.59;;;34.54;28.48
6942;BME280;3510;43.200;27.920;2023-05-20T12:59:22;100961.22;;;34.01;28.98
6942;BME280;3510;43.200;27.920;2023-05-20T13:01:49;100967.75;;;33.48;30.36